createdAt,value
2023-12-31T00:00:06.210Z,99342.53
2023-12-31T00:02:34.496Z,99333.88
2023-12-31T00:05:02.489Z,99326.66
2023-12-31T00:07:32.492Z,99323.50
2023-12-31T00:10:00.686Z,99315.94
2023-12-31T00:12:29.703Z,99313.13
2023-12-31T00:14:58.366Z,99309.75
2023-12-31T00:17:28.055Z,99302.03
2023-12-31T00:19:56.860Z,99297.59
2023-12-31T00:22:25.655Z,99285.91
2023-12-31T00:24:55.782Z,99291.31
2023-12-31T00:27:24.376Z,99287.59
2023-12-31T00:29:52.981Z,99281.00
2023-12-31T00:32:21.928Z,99278.56
2023-12-31T00:34:51.350Z,99284.22
2023-12-31T00:37:20.079Z,99265.63
2023-12-31T00:39:48.160Z,99269.41
2023-12-31T00:42:16.767Z,99266.97
2023-12-31T00:44:44.853Z,99263.47
2023-12-31T00:47:13.047Z,99260.81
2023-12-31T00:49:41.049Z,99257.81
2023-12-31T00:52:11.858Z,99260.47
2023-12-31T00:54:40.388Z,99256.97
2023-12-31T00:57:08.351Z,99258.41
2023-12-31T00:59:37.520Z,99249.94
2023-12-31T01:02:05.771Z,99247.06
2023-12-31T01:04:34.362Z,99241.75
2023-12-31T01:07:04.167Z,99240.25
2023-12-31T01:09:33.757Z,99233.44
2023-12-31T01:12:01.705Z,99234.44
2023-12-31T01:14:31.812Z,99234.31
2023-12-31T01:17:00.882Z,99241.09
2023-12-31T01:19:32.037Z,99228.13
2023-12-31T01:22:00.375Z,99223.56
2023-12-31T01:24:28.359Z,99207.06
2023-12-31T01:26:59.043Z,99211.41
2023-12-31T01:29:27.073Z,99207.91
2023-12-31T01:31:55.827Z,99198.38
2023-12-31T01:34:23.836Z,99186.06
2023-12-31T01:36:51.987Z,99172.47
2023-12-31T01:39:20.349Z,99176.06
2023-12-31T01:41:49.309Z,99165.84
2023-12-31T01:44:19.176Z,99153.41
2023-12-31T01:46:49.233Z,99152.56
2023-12-31T01:49:17.689Z,99161.38
2023-12-31T01:51:45.767Z,99152.56
2023-12-31T01:54:16.314Z,99153.41
2023-12-31T01:56:46.744Z,99153.06
2023-12-31T01:59:16.367Z,99138.81
2023-12-31T02:01:47.032Z,99130.38
2023-12-31T02:04:25.307Z,99133.84
2023-12-31T02:06:53.474Z,99120.91
2023-12-31T02:09:22.053Z,99124.53
2023-12-31T02:11:50.088Z,99119.03
2023-12-31T02:14:18.382Z,99121.06
2023-12-31T02:16:47.748Z,99112.25
2023-12-31T02:19:17.936Z,99102.78
2023-12-31T02:21:46.785Z,99099.66
2023-12-31T02:24:16.630Z,99101.03
2023-12-31T02:26:47.199Z,99096.69
2023-12-31T02:29:16.515Z,99086.81
2023-12-31T02:31:45.225Z,99087.94
2023-12-31T02:34:14.011Z,99090.91
2023-12-31T02:36:42.148Z,99071.91
2023-12-31T02:39:10.223Z,99068.75
2023-12-31T02:41:39.387Z,99060.81
2023-12-31T02:44:09.772Z,99059.25
2023-12-31T02:46:38.152Z,99059.94
2023-12-31T02:49:07.631Z,99053.19
2023-12-31T02:51:35.890Z,99052.59
2023-12-31T02:54:03.947Z,99054.31
2023-12-31T02:56:33.058Z,99044.19
2023-12-31T02:59:01.782Z,99046.22
2023-12-31T03:01:33.794Z,99036.69
2023-12-31T03:04:01.877Z,99034.91
2023-12-31T03:06:31.706Z,99029.31
2023-12-31T03:09:03.604Z,99022.25
2023-12-31T03:11:31.779Z,99018.59
2023-12-31T03:13:59.925Z,99012.72
2023-12-31T03:16:28.732Z,99003.81
2023-12-31T03:18:58.166Z,98992.09
2023-12-31T03:21:26.789Z,98991.91
2023-12-31T03:23:55.462Z,98989.25
2023-12-31T03:26:24.710Z,98985.84
2023-12-31T03:28:53.393Z,98989.81
2023-12-31T03:31:22.038Z,98985.50
2023-12-31T03:33:50.273Z,98976.69
2023-12-31T03:36:19.643Z,98978.00
2023-12-31T03:38:48.431Z,98990.66
2023-12-31T03:41:16.416Z,98977.56
2023-12-31T03:43:45.546Z,98983.56
2023-12-31T03:46:14.185Z,98974.78
2023-12-31T03:48:42.634Z,98971.66
2023-12-31T03:51:10.711Z,98973.16
2023-12-31T03:53:43.835Z,98971.81
2023-12-31T03:56:12.128Z,98976.38
2023-12-31T03:58:40.163Z,98962.75
2023-12-31T04:01:09.113Z,98962.41
2023-12-31T04:03:37.155Z,98956.84
2023-12-31T04:06:06.154Z,98958.19
2023-12-31T04:08:34.171Z,98946.53
2023-12-31T04:11:03.549Z,98944.81
2023-12-31T04:13:32.055Z,98939.88
2023-12-31T04:16:00.722Z,98942.75
2023-12-31T04:18:29.001Z,98939.00
2023-12-31T04:20:57.135Z,98927.13
2023-12-31T04:23:26.048Z,98933.16
2023-12-31T04:25:54.157Z,98919.41
2023-12-31T04:28:26.990Z,98924.59
2023-12-31T04:30:55.365Z,98912.50
2023-12-31T04:33:23.377Z,98922.00
2023-12-31T04:35:52.206Z,98908.38
2023-12-31T04:38:20.167Z,98906.97
2023-12-31T04:40:49.848Z,98907.66
2023-12-31T04:43:18.471Z,98903.34
2023-12-31T04:45:49.825Z,98894.53
2023-12-31T04:48:18.999Z,98884.38
2023-12-31T04:50:46.985Z,98885.94
2023-12-31T04:53:16.935Z,98881.16
2023-12-31T04:55:45.691Z,98880.56
2023-12-31T04:58:13.797Z,98874.81
2023-12-31T05:00:42.691Z,98879.75
2023-12-31T05:03:12.771Z,98875.03
2023-12-31T05:05:41.342Z,98861.47
2023-12-31T05:08:10.308Z,98865.75
2023-12-31T05:10:39.230Z,98855.25
2023-12-31T05:13:07.254Z,98858.97
2023-12-31T05:15:36.298Z,98859.59
2023-12-31T05:18:05.547Z,98851.66
2023-12-31T05:20:34.897Z,98845.19
2023-12-31T05:23:03.495Z,98833.81
2023-12-31T05:25:32.105Z,98833.75
2023-12-31T05:28:00.738Z,98830.94
2023-12-31T05:30:28.744Z,98826.50
2023-12-31T05:32:58.363Z,98828.28
2023-12-31T05:35:26.351Z,98822.91
2023-12-31T05:37:56.345Z,98807.63
2023-12-31T05:40:25.172Z,98806.28
2023-12-31T05:42:53.360Z,98802.97
2023-12-31T05:45:21.316Z,98807.38
2023-12-31T05:47:50.623Z,98791.94
2023-12-31T05:50:18.957Z,98794.59
2023-12-31T05:52:48.694Z,98790.94
2023-12-31T05:55:18.722Z,98778.97
2023-12-31T05:57:47.015Z,98770.81
2023-12-31T06:00:16.441Z,98762.88
2023-12-31T06:02:45.737Z,98762.34
2023-12-31T06:05:13.817Z,98760.66
2023-12-31T06:07:43.006Z,98753.50
2023-12-31T06:10:12.180Z,98743.00
2023-12-31T06:12:41.726Z,98729.44
2023-12-31T06:15:10.903Z,98730.03
2023-12-31T06:17:40.546Z,98726.09
2023-12-31T06:20:09.482Z,98719.94
2023-12-31T06:22:38.613Z,98721.06
2023-12-31T06:25:07.838Z,98722.03
2023-12-31T06:27:35.990Z,98710.13
2023-12-31T06:30:06.399Z,98714.88
2023-12-31T06:32:35.592Z,98714.03
2023-12-31T06:35:05.011Z,98702.88
2023-12-31T06:37:33.390Z,98695.63
2023-12-31T06:40:02.000Z,98694.09
2023-12-31T06:42:30.880Z,98683.88
2023-12-31T06:44:58.817Z,98678.03
2023-12-31T06:47:29.399Z,98681.25
2023-12-31T06:49:57.616Z,98685.00
2023-12-31T06:52:25.672Z,98682.53
2023-12-31T06:54:54.410Z,98673.31
2023-12-31T06:57:22.423Z,98668.84
2023-12-31T06:59:50.848Z,98670.38
2023-12-31T07:02:19.497Z,98659.75
2023-12-31T07:04:49.064Z,98662.28
2023-12-31T07:07:17.098Z,98654.75
2023-12-31T07:09:46.094Z,98664.94
2023-12-31T07:12:14.051Z,98648.34
2023-12-31T07:14:42.635Z,98641.63
2023-12-31T07:17:11.093Z,98649.16
2023-12-31T07:19:40.960Z,98653.19
2023-12-31T07:22:12.201Z,98642.88
2023-12-31T07:24:42.016Z,98642.44
2023-12-31T07:27:10.703Z,98646.81
2023-12-31T07:29:39.091Z,98646.94
2023-12-31T07:32:08.034Z,98637.44
2023-12-31T07:34:36.260Z,98633.25
2023-12-31T07:37:05.569Z,98631.34
2023-12-31T07:39:34.973Z,98625.28
2023-12-31T07:42:06.950Z,98618.56
2023-12-31T07:44:35.209Z,98631.72
2023-12-31T07:47:04.772Z,98621.81
2023-12-31T07:49:35.064Z,98617.88
2023-12-31T07:52:03.467Z,98619.28
2023-12-31T07:54:32.065Z,98615.94
2023-12-31T07:57:02.096Z,98602.94
2023-12-31T07:59:30.282Z,98605.88
2023-12-31T08:01:58.882Z,98598.44
2023-12-31T08:04:27.565Z,98600.28
2023-12-31T08:06:55.656Z,98590.75
2023-12-31T08:09:24.642Z,98586.31
2023-12-31T08:11:53.327Z,98589.91
2023-12-31T08:14:23.136Z,98568.28
2023-12-31T08:16:52.042Z,98567.72
2023-12-31T08:19:21.017Z,98573.28
2023-12-31T08:21:49.811Z,98559.75
2023-12-31T08:24:21.979Z,98563.34
2023-12-31T08:26:50.150Z,98559.31
2023-12-31T08:29:18.106Z,98554.56
2023-12-31T08:31:54.205Z,98561.25
2023-12-31T08:34:22.694Z,98544.75
2023-12-31T08:36:50.755Z,98553.44
2023-12-31T08:39:19.353Z,98547.72
2023-12-31T08:41:47.297Z,98552.03
2023-12-31T08:44:15.769Z,98550.91
2023-12-31T08:46:45.743Z,98541.41
2023-12-31T08:49:15.554Z,98544.63
2023-12-31T08:51:44.416Z,98525.88
2023-12-31T08:54:12.952Z,98525.88
2023-12-31T08:56:41.142Z,98539.44
2023-12-31T08:59:09.146Z,98534.81
2023-12-31T09:01:38.402Z,98525.47
2023-12-31T09:04:06.883Z,98519.75
2023-12-31T09:06:36.732Z,98527.72
2023-12-31T09:09:07.550Z,98532.72
2023-12-31T09:11:37.019Z,98529.50
2023-12-31T09:14:04.945Z,98524.75
2023-12-31T09:16:33.971Z,98519.75
2023-12-31T09:19:01.973Z,98524.75
2023-12-31T09:21:31.012Z,98521.25
2023-12-31T09:24:01.224Z,98525.72
2023-12-31T09:26:29.395Z,98541.81
2023-12-31T09:28:57.441Z,98535.78
2023-12-31T09:31:27.005Z,98537.59
2023-12-31T09:33:55.062Z,98540.53
2023-12-31T09:36:23.701Z,98529.47
2023-12-31T09:38:52.772Z,98523.88
2023-12-31T09:41:26.258Z,98527.81
2023-12-31T09:43:56.807Z,98523.19
2023-12-31T09:46:32.241Z,98514.50
2023-12-31T09:49:04.428Z,98522.34
2023-12-31T09:51:32.636Z,98518.00
2023-12-31T09:54:02.507Z,98512.09
2023-12-31T09:56:34.093Z,98492.25
2023-12-31T09:59:06.329Z,98495.28
2023-12-31T10:01:39.076Z,98493.34
2023-12-31T10:04:09.502Z,98486.50
2023-12-31T10:06:41.438Z,98473.75
2023-12-31T10:09:12.978Z,98480.69
2023-12-31T10:11:44.187Z,98474.50
2023-12-31T10:14:12.431Z,98479.53
2023-12-31T10:16:45.915Z,98469.19
2023-12-31T10:19:14.206Z,98471.00
2023-12-31T10:21:43.647Z,98457.34
2023-12-31T10:24:12.608Z,98463.66
2023-12-31T10:26:41.988Z,98460.56
2023-12-31T10:29:13.092Z,98453.94
2023-12-31T10:31:44.882Z,98448.19
2023-12-31T10:34:18.166Z,98457.09
2023-12-31T10:36:48.005Z,98453.59
2023-12-31T10:39:29.420Z,98446.38
2023-12-31T10:42:01.263Z,98446.22
2023-12-31T10:44:30.306Z,98440.44
2023-12-31T10:47:00.859Z,98434.34
2023-12-31T10:49:34.224Z,98429.56
2023-12-31T10:52:04.620Z,98426.78
2023-12-31T10:54:41.195Z,98408.16
2023-12-31T10:57:12.073Z,98410.94
2023-12-31T10:59:43.802Z,98394.16
2023-12-31T11:02:17.473Z,98392.31
2023-12-31T11:04:47.828Z,98398.47
2023-12-31T11:07:17.972Z,98394.91
2023-12-31T11:09:48.550Z,98386.25
2023-12-31T11:12:18.939Z,98392.59
2023-12-31T11:14:52.637Z,98376.44
2023-12-31T11:17:49.920Z,98371.72
2023-12-31T11:20:41.875Z,98371.94
2023-12-31T11:23:19.077Z,98356.97
2023-12-31T11:25:48.829Z,98355.97
2023-12-31T11:28:18.577Z,98342.22
2023-12-31T11:30:51.942Z,98346.25
2023-12-31T11:33:22.097Z,98339.47
2023-12-31T11:35:54.016Z,98338.34
2023-12-31T11:38:22.406Z,98338.41
2023-12-31T11:40:51.252Z,98347.66
2023-12-31T11:43:22.758Z,98342.38
2023-12-31T11:45:52.223Z,98344.84
2023-12-31T11:48:24.829Z,98345.91
2023-12-31T11:50:53.911Z,98339.56
2023-12-31T11:53:23.169Z,98333.44
2023-12-31T11:55:56.588Z,98329.84
2023-12-31T11:58:29.118Z,98325.94
2023-12-31T12:00:58.717Z,98314.25
2023-12-31T12:03:27.792Z,98306.41
2023-12-31T12:05:56.550Z,98311.75
2023-12-31T12:08:24.989Z,98314.56
2023-12-31T12:10:54.727Z,98311.97
2023-12-31T12:13:23.339Z,98305.16
2023-12-31T12:15:53.150Z,98310.00
2023-12-31T12:18:23.448Z,98300.06
2023-12-31T12:20:53.626Z,98302.69
2023-12-31T12:23:23.104Z,98306.81
2023-12-31T12:25:53.506Z,98311.22
2023-12-31T12:28:21.596Z,98309.75
2023-12-31T12:30:52.394Z,98307.69
2023-12-31T12:33:21.290Z,98312.50
2023-12-31T12:35:49.870Z,98307.41
2023-12-31T12:38:19.025Z,98306.88
2023-12-31T12:40:47.732Z,98300.19
2023-12-31T12:43:15.982Z,98296.75
2023-12-31T12:45:44.181Z,98304.88
2023-12-31T12:48:14.698Z,98297.75
2023-12-31T12:50:43.960Z,98295.78
2023-12-31T12:53:12.049Z,98285.66
2023-12-31T12:55:41.252Z,98278.28
2023-12-31T12:58:09.348Z,98283.91
2023-12-31T13:00:38.037Z,98279.13
2023-12-31T13:03:09.301Z,98293.78
2023-12-31T13:05:39.695Z,98286.63
2023-12-31T13:08:09.423Z,98283.81
2023-12-31T13:10:37.648Z,98283.56
2023-12-31T13:13:06.718Z,98297.91
2023-12-31T13:15:35.754Z,98281.25
2023-12-31T13:18:03.783Z,98285.97
2023-12-31T13:20:33.106Z,98288.56
2023-12-31T13:23:03.637Z,98293.63
2023-12-31T13:25:32.406Z,98301.63
2023-12-31T13:28:00.393Z,98305.50
2023-12-31T13:30:29.629Z,98304.59
2023-12-31T13:32:57.590Z,98300.84
2023-12-31T13:35:26.258Z,98295.38
2023-12-31T13:37:54.349Z,98307.78
2023-12-31T13:40:24.200Z,98315.84
2023-12-31T13:42:54.572Z,98318.38
2023-12-31T13:45:22.561Z,98328.41
2023-12-31T13:47:51.554Z,98330.91
2023-12-31T13:50:20.042Z,98342.31
2023-12-31T13:52:48.349Z,98335.03
2023-12-31T13:55:16.482Z,98337.91
2023-12-31T13:57:46.978Z,98341.41
2023-12-31T14:00:16.232Z,98345.38
2023-12-31T14:02:53.335Z,98344.31
2023-12-31T14:05:27.675Z,98344.44
2023-12-31T14:07:55.927Z,98343.47
2023-12-31T14:10:24.504Z,98339.31
2023-12-31T14:12:55.032Z,98330.72
2023-12-31T14:15:23.699Z,98339.19
2023-12-31T14:17:51.879Z,98353.41
2023-12-31T14:20:20.715Z,98354.59
2023-12-31T14:22:48.940Z,98362.59
2023-12-31T14:25:17.718Z,98380.16
2023-12-31T14:27:47.396Z,98377.25
2023-12-31T14:30:17.081Z,98384.41
2023-12-31T14:32:46.584Z,98388.59
2023-12-31T14:35:15.211Z,98383.66
2023-12-31T14:37:43.491Z,98398.13
2023-12-31T14:40:11.983Z,98396.50
2023-12-31T14:42:41.266Z,98380.84
2023-12-31T14:45:10.797Z,98385.72
2023-12-31T14:47:41.137Z,98389.19
2023-12-31T14:50:10.928Z,98388.97
2023-12-31T14:52:39.300Z,98401.28
2023-12-31T14:55:08.392Z,98392.88
2023-12-31T14:57:37.834Z,98396.88
2023-12-31T15:00:06.923Z,98395.19
2023-12-31T15:02:35.611Z,98397.63
2023-12-31T15:05:12.184Z,98400.56
2023-12-31T15:07:46.265Z,98403.69
2023-12-31T15:10:15.803Z,98399.19
2023-12-31T15:12:44.147Z,98413.44
2023-12-31T15:15:12.571Z,98422.47
2023-12-31T15:17:42.072Z,98438.34
2023-12-31T15:20:17.337Z,98439.25
2023-12-31T15:22:47.071Z,98438.81
2023-12-31T15:25:15.156Z,98475.28
2023-12-31T15:27:43.687Z,98463.13
2023-12-31T15:30:13.905Z,98487.66
2023-12-31T15:32:42.302Z,98487.50
2023-12-31T15:35:16.052Z,98499.16
2023-12-31T15:37:54.092Z,98504.38
2023-12-31T15:40:27.286Z,98491.09
2023-12-31T15:42:55.349Z,98509.84
2023-12-31T15:45:23.976Z,98510.06
2023-12-31T15:47:52.893Z,98483.69
2023-12-31T15:50:22.570Z,98492.03
2023-12-31T15:52:51.160Z,98508.31
2023-12-31T15:55:19.635Z,98492.34
2023-12-31T15:57:48.541Z,98503.34
2023-12-31T16:00:16.990Z,98486.03
2023-12-31T16:02:46.416Z,98483.81
2023-12-31T16:05:15.691Z,98480.22
2023-12-31T16:07:45.327Z,98473.56
2023-12-31T16:10:14.037Z,98474.94
2023-12-31T16:12:42.207Z,98479.88
2023-12-31T16:15:11.759Z,98476.16
2023-12-31T16:17:41.000Z,98485.47
2023-12-31T16:20:10.562Z,98478.16
2023-12-31T16:22:39.264Z,98482.16
2023-12-31T16:25:09.641Z,98476.22
2023-12-31T16:27:38.218Z,98478.88
2023-12-31T16:30:07.534Z,98475.94
2023-12-31T16:32:36.652Z,98478.59
2023-12-31T16:35:05.012Z,98479.81
2023-12-31T16:37:34.119Z,98483.88
2023-12-31T16:40:02.920Z,98479.56
2023-12-31T16:42:32.833Z,98485.69
2023-12-31T16:45:00.778Z,98487.28
2023-12-31T16:47:30.036Z,98488.09
2023-12-31T16:49:58.055Z,98487.34
2023-12-31T16:52:26.651Z,98489.84
2023-12-31T16:54:58.189Z,98487.34
2023-12-31T16:57:26.290Z,98497.06
2023-12-31T16:59:55.715Z,98494.00
2023-12-31T17:02:24.906Z,98499.28
2023-12-31T17:04:52.990Z,98493.28
2023-12-31T17:07:21.752Z,98505.81
2023-12-31T17:09:50.308Z,98492.81
2023-12-31T17:12:18.564Z,98494.94
2023-12-31T17:14:46.588Z,98494.00
2023-12-31T17:17:17.147Z,98492.56
2023-12-31T17:19:45.316Z,98492.34
2023-12-31T17:22:18.987Z,98484.53
2023-12-31T17:24:47.948Z,98490.22
2023-12-31T17:27:16.110Z,98482.16
2023-12-31T17:29:45.388Z,98484.41
2023-12-31T17:32:13.432Z,98483.41
2023-12-31T17:34:43.599Z,98488.41
2023-12-31T17:37:13.029Z,98494.81
2023-12-31T17:39:42.736Z,98483.19
2023-12-31T17:42:12.453Z,98497.66
2023-12-31T17:44:40.644Z,98497.78
2023-12-31T17:47:09.163Z,98489.84
2023-12-31T17:49:38.245Z,98497.53
2023-12-31T17:52:08.111Z,98490.09
2023-12-31T17:54:36.878Z,98495.13
2023-12-31T17:57:05.696Z,98494.69
2023-12-31T17:59:33.866Z,98507.53
2023-12-31T18:02:02.038Z,98504.34
2023-12-31T18:04:31.684Z,98503.66
2023-12-31T18:06:59.653Z,98498.88
2023-12-31T18:09:29.478Z,98500.28
2023-12-31T18:11:57.926Z,98500.28
2023-12-31T18:14:26.626Z,98503.41
2023-12-31T18:16:54.687Z,98497.28
2023-12-31T18:19:24.057Z,98507.22
2023-12-31T18:21:52.189Z,98495.59
2023-12-31T18:24:20.945Z,98501.59
2023-12-31T18:26:52.086Z,98503.78
2023-12-31T18:29:20.784Z,98521.22
2023-12-31T18:31:48.821Z,98513.84
2023-12-31T18:34:17.980Z,98503.78
2023-12-31T18:36:47.345Z,98502.53
2023-12-31T18:39:16.124Z,98506.56
2023-12-31T18:41:44.167Z,98509.41
2023-12-31T18:44:13.773Z,98501.13
2023-12-31T18:46:43.143Z,98500.31
2023-12-31T18:49:11.523Z,98494.78
2023-12-31T18:51:42.539Z,98496.47
2023-12-31T18:54:12.277Z,98493.00
2023-12-31T18:56:40.297Z,98505.03
2023-12-31T18:59:10.621Z,98498.88
2023-12-31T19:01:41.465Z,98502.38
2023-12-31T19:04:10.671Z,98497.38
2023-12-31T19:06:38.968Z,98493.47
2023-12-31T19:09:09.560Z,98503.78
2023-12-31T19:11:37.913Z,98495.66
2023-12-31T19:14:05.841Z,98501.13
2023-12-31T19:16:35.000Z,98515.22
2023-12-31T19:19:04.404Z,98517.19
2023-12-31T19:21:32.620Z,98502.69
2023-12-31T19:24:01.113Z,98514.53
2023-12-31T19:26:29.365Z,98509.41
2023-12-31T19:28:58.582Z,98513.72
2023-12-31T19:31:28.764Z,98518.06
2023-12-31T19:33:56.853Z,98515.81
2023-12-31T19:36:26.879Z,98516.81
2023-12-31T19:38:55.693Z,98514.97
2023-12-31T19:41:23.830Z,98511.06
2023-12-31T19:44:14.151Z,98512.31
2023-12-31T19:46:40.881Z,98513.47
2023-12-31T19:49:08.923Z,98514.28
2023-12-31T19:51:44.088Z,98521.81
2023-12-31T19:54:12.834Z,98522.25
2023-12-31T19:56:40.821Z,98510.81
2023-12-31T19:59:09.778Z,98517.50
2023-12-31T20:01:37.869Z,98516.25
2023-12-31T20:04:06.885Z,98511.06
2023-12-31T20:06:35.490Z,98510.81
2023-12-31T20:09:07.597Z,98510.94
2023-12-31T20:11:36.992Z,98509.53
2023-12-31T20:14:05.790Z,98520.59
2023-12-31T20:16:34.038Z,98518.50
2023-12-31T20:19:03.069Z,98525.22
2023-12-31T20:21:31.472Z,98517.50
2023-12-31T20:24:03.229Z,98529.38
2023-12-31T20:26:32.887Z,98541.25
2023-12-31T20:29:02.009Z,98540.16
2023-12-31T20:31:31.984Z,98535.97
2023-12-31T20:34:00.309Z,98539.03
2023-12-31T20:36:28.434Z,98544.38
2023-12-31T20:38:58.206Z,98539.59
2023-12-31T20:41:26.268Z,98526.88
2023-12-31T20:43:57.078Z,98540.72
2023-12-31T20:46:25.738Z,98533.44
2023-12-31T20:48:53.849Z,98530.34
2023-12-31T20:51:23.646Z,98528.13
2023-12-31T20:53:52.944Z,98527.00
2023-12-31T20:56:21.987Z,98531.47
2023-12-31T20:58:52.300Z,98531.78
2023-12-31T21:01:22.823Z,98521.56
2023-12-31T21:03:52.128Z,98532.06
2023-12-31T21:06:20.114Z,98539.31
2023-12-31T21:08:49.292Z,98539.19
2023-12-31T21:11:18.961Z,98537.06
2023-12-31T21:13:48.161Z,98542.81
2023-12-31T21:16:17.487Z,98551.91
2023-12-31T21:18:47.039Z,98544.63
2023-12-31T21:21:15.713Z,98544.63
2023-12-31T21:23:43.869Z,98543.09
2023-12-31T21:26:12.106Z,98541.28
2023-12-31T21:28:40.188Z,98539.00
2023-12-31T21:31:09.771Z,98545.31
2023-12-31T21:33:37.896Z,98540.59
2023-12-31T21:36:09.550Z,98536.66
2023-12-31T21:38:38.559Z,98535.25
2023-12-31T21:41:07.661Z,98528.13
2023-12-31T21:43:36.620Z,98531.16
2023-12-31T21:46:04.635Z,98534.38
2023-12-31T21:48:33.538Z,98533.28
2023-12-31T21:51:02.026Z,98538.28
2023-12-31T21:53:31.703Z,98527.13
2023-12-31T21:56:14.389Z,98536.34
2023-12-31T21:58:49.772Z,98546.44
2023-12-31T22:01:18.098Z,98550.88
2023-12-31T22:03:46.732Z,98560.78
2023-12-31T22:06:15.095Z,98556.25
2023-12-31T22:08:44.527Z,98555.84
2023-12-31T22:11:13.090Z,98551.81
2023-12-31T22:13:43.247Z,98551.63
2023-12-31T22:16:11.421Z,98564.63
2023-12-31T22:18:41.863Z,98563.59
2023-12-31T22:21:12.023Z,98553.78
2023-12-31T22:23:40.129Z,98551.53
2023-12-31T22:26:10.101Z,98554.06
2023-12-31T22:28:38.577Z,98551.28
2023-12-31T22:31:06.870Z,98561.09
2023-12-31T22:33:34.901Z,98564.47
2023-12-31T22:36:04.143Z,98556.88
2023-12-31T22:38:32.121Z,98558.72
2023-12-31T22:41:01.118Z,98554.66
2023-12-31T22:43:32.283Z,98547.97
2023-12-31T22:46:01.855Z,98553.72
2023-12-31T22:48:30.644Z,98555.94
2023-12-31T22:50:59.133Z,98549.25
2023-12-31T22:53:27.287Z,98552.72
2023-12-31T22:55:55.298Z,98547.00
2023-12-31T22:58:24.078Z,98554.56
2023-12-31T23:00:55.492Z,98554.81
2023-12-31T23:03:23.632Z,98551.59
2023-12-31T23:05:52.679Z,98547.69
2023-12-31T23:08:21.287Z,98541.28
2023-12-31T23:10:49.945Z,98542.09
2023-12-31T23:13:18.413Z,98548.81
2023-12-31T23:15:49.356Z,98540.97
2023-12-31T23:18:19.779Z,98533.72
2023-12-31T23:20:47.975Z,98543.25
2023-12-31T23:23:16.661Z,98532.59
2023-12-31T23:25:45.559Z,98535.25
2023-12-31T23:28:13.869Z,98524.06
2023-12-31T23:30:41.869Z,98537.47
2023-12-31T23:33:11.540Z,98518.63
2023-12-31T23:35:41.084Z,98532.97
2023-12-31T23:38:10.176Z,98537.59
2023-12-31T23:40:39.139Z,98531.34
2023-12-31T23:43:07.728Z,98532.59
2023-12-31T23:45:34.803Z,98531.47
2023-12-31T23:48:05.540Z,98538.31
2023-12-31T23:50:34.916Z,98526.31
2023-12-31T23:53:04.358Z,98530.50
2023-12-31T23:55:34.542Z,98536.78
2023-12-31T23:58:08.328Z,98531.59
